< < Back
Terminal Aerodrome Forecast


Current Version              Previous Versions:   1  2  3  4  5  6  7  8  9  

Terminal Aerodrome Forecast

435
FTUS42 KJAX 311100
TAFJAX
TAF
KJAX 311120Z 3112/0112 33004KT P6SM SCT025
     FM311500 31010KT P6SM FEW040
     FM312300 27005KT P6SM SKC
     FM010900 29013G26KT P6SM SCT035=

Latest METAR

950
SAUS80 KWBC 010700 RRK
MTRJAX
METAR KJAX 010656Z 29007KT 10SM FEW090 12/08 A2985 RMK AO2 SLP109
T01220078


USA.gov is the U.S. government's official web portal to all federal, state and local government web resources and services.